Time;durP1;ratioP1;P1;durP2;ratioP2;P2;SDS_P1;SDS_P2;PMS_P1;PMS_P2;Temp;Humidity;BMP_temperature;BMP_pressure;BME280_temperature;BME280_humidity;BME280_pressure;Samples;Min_cycle;Max_cycle;Signal;HPM_P1;HPM_P2
2022/03/14 00:00:58;;;;;;;19.88;12.02;;;10.30;36.50;;;;;;5095141;28;20024;-75
2022/03/14 00:03:25;;;;;;;21.02;12.32;;;10.40;36.40;;;;;;5095178;28;20111;-75
2022/03/14 00:05:51;;;;;;;22.13;14.02;;;10.40;36.40;;;;;;5095272;28;20480;-75
2022/03/14 00:08:18;;;;;;;26.58;14.80;;;10.30;36.70;;;;;;5095271;28;20077;-75
2022/03/14 00:10:45;;;;;;;25.58;14.30;;;10.20;38.40;;;;;;5094970;28;20032;-77
2022/03/14 00:13:16;;;;;;;30.88;16.77;;;10.20;37.90;;;;;;5095218;28;20031;-76
2022/03/14 00:15:42;;;;;;;29.42;17.13;;;10.30;38.50;;;;;;5095100;28;20051;-76
2022/03/14 00:18:10;;;;;;;41.08;22.23;;;10.30;39.60;;;;;;5093919;28;20020;-76
2022/03/14 00:20:35;;;;;;;39.15;22.73;;;10.40;43.10;;;;;;5095163;28;20028;-76
2022/03/14 00:23:01;;;;;;;39.33;22.92;;;10.40;44.10;;;;;;5095002;28;20027;-76
2022/03/14 00:25:28;;;;;;;43.95;22.35;;;10.40;44.70;;;;;;5095076;28;20024;-76
2022/03/14 00:27:57;;;;;;;42.80;23.50;;;10.40;45.40;;;;;;5094987;28;20016;-76
2022/03/14 00:30:23;;;;;;;39.40;21.92;;;10.40;46.00;;;;;;5094919;28;20083;-75
2022/03/14 00:32:49;;;;;;;41.53;22.45;;;10.30;46.30;;;;;;5094811;28;20043;-75
2022/03/14 00:35:15;;;;;;;37.08;22.13;;;10.20;46.80;;;;;;5094951;28;20028;-75
2022/03/14 00:37:40;;;;;;;40.05;22.90;;;10.20;47.10;;;;;;5094848;28;20058;-75
2022/03/14 00:40:08;;;;;;;44.85;23.17;;;10.10;47.30;;;;;;5094742;28;20035;-75
2022/03/14 00:42:35;;;;;;;38.63;22.75;;;10.00;48.30;;;;;;5094588;28;20482;-76
2022/03/14 00:45:01;;;;;;;39.58;22.52;;;10.00;48.40;;;;;;5094633;28;20031;-76
2022/03/14 00:47:28;;;;;;;42.42;23.60;;;10.00;48.30;;;;;;5093132;28;20020;-76
2022/03/14 00:49:54;;;;;;;41.13;23.45;;;10.00;48.60;;;;;;5094342;28;20081;-76
2022/03/14 00:52:21;;;;;;;37.80;22.60;;;10.10;48.80;;;;;;5094454;28;20020;-76
2022/03/14 00:54:47;;;;;;;39.67;22.77;;;10.00;49.00;;;;;;5094051;28;20062;-76
2022/03/14 00:57:15;;;;;;;39.30;22.58;;;10.00;49.10;;;;;;5094412;28;20028;-75
2022/03/14 00:59:41;;;;;;;37.83;21.73;;;10.10;49.40;;;;;;5094423;28;20024;-75
2022/03/14 01:02:09;;;;;;;41.38;23.55;;;10.20;49.40;;;;;;5094366;28;20101;-76
2022/03/14 01:04:35;;;;;;;33.90;21.17;;;10.20;50.10;;;;;;5094299;28;20031;-76
2022/03/14 01:07:02;;;;;;;34.35;22.15;;;10.20;50.60;;;;;;5094158;28;20107;-76
2022/03/14 01:09:29;;;;;;;35.38;22.55;;;10.10;51.00;;;;;;5094139;28;20027;-75
2022/03/14 01:11:54;;;;;;;36.53;21.98;;;10.10;51.50;;;;;;5094034;28;20476;-76
2022/03/14 01:14:21;;;;;;;37.40;23.10;;;10.10;51.70;;;;;;5094098;28;20016;-76
2022/03/14 01:16:47;;;;;;;42.45;23.85;;;10.10;51.70;;;;;;5093321;28;20097;-75
2022/03/14 01:19:12;;;;;;;34.80;20.67;;;10.20;51.70;;;;;;5094022;28;20028;-75
2022/03/14 01:21:39;;;;;;;37.53;23.00;;;10.20;51.40;;;;;;5093917;28;20097;-75
2022/03/14 01:24:05;;;;;;;36.25;21.73;;;10.20;51.80;;;;;;5094027;28;20024;-76
2022/03/14 01:26:33;;;;;;;38.17;22.33;;;10.10;52.10;;;;;;5093835;28;20020;-76
2022/03/14 01:28:59;;;;;;;37.63;21.05;;;10.10;52.30;;;;;;5092507;28;20028;-76
2022/03/14 01:31:25;;;;;;;28.58;17.50;;;10.20;52.40;;;;;;5093642;28;20084;-75
2022/03/14 01:33:51;;;;;;;25.00;14.20;;;9.90;53.30;;;;;;5093729;28;20405;-75
2022/03/14 01:36:17;;;;;;;23.10;13.05;;;9.90;54.10;;;;;;5093840;28;20024;-76
2022/03/14 01:38:43;;;;;;;18.75;12.68;;;9.90;54.50;;;;;;5093501;28;20027;-75
2022/03/14 01:41:10;;;;;;;16.05;10.43;;;9.80;55.20;;;;;;5093695;28;20016;-75
2022/03/14 01:43:36;;;;;;;18.55;11.00;;;9.60;57.60;;;;;;5093612;28;20028;-75
2022/03/14 01:46:01;;;;;;;13.95;8.70;;;9.60;58.40;;;;;;5092463;28;20092;-75
2022/03/14 01:48:27;;;;;;;17.58;7.78;;;9.60;61.70;;;;;;5093275;28;20501;-75
2022/03/14 01:50:53;;;;;;;14.05;7.95;;;9.40;65.00;;;;;;5093275;28;20036;-75
2022/03/14 01:53:20;;;;;;;10.93;6.57;;;9.30;66.60;;;;;;5093572;28;20123;-75
2022/03/14 01:55:49;;;;;;;13.15;6.57;;;9.20;68.20;;;;;;5093180;28;20043;-75
2022/03/14 01:58:16;;;;;;;10.20;6.07;;;9.20;69.60;;;;;;5093267;28;20024;-77
2022/03/14 02:00:43;;;;;;;10.10;6.07;;;9.10;70.20;;;;;;5093327;28;20020;-76
2022/03/14 02:03:09;;;;;;;7.45;4.70;;;9.00;71.40;;;;;;5093267;28;20061;-76
2022/03/14 02:05:36;;;;;;;4.88;3.38;;;9.00;71.70;;;;;;5093239;28;20024;-76
2022/03/14 02:08:05;;;;;;;4.03;2.22;;;8.80;72.20;;;;;;5093187;28;20027;-76
2022/03/14 02:10:31;;;;;;;5.00;2.10;;;8.70;72.90;;;;;;5093180;28;20445;-76
2022/03/14 02:12:58;;;;;;;4.05;1.90;;;8.60;74.00;;;;;;5093116;28;20095;-76
2022/03/14 02:15:23;;;;;;;3.22;1.70;;;8.70;73.20;;;;;;5093044;28;20125;-75
2022/03/14 02:17:49;;;;;;;4.93;1.73;;;8.80;73.60;;;;;;5093077;28;20429;-76
2022/03/14 02:20:15;;;;;;;2.97;1.40;;;8.80;72.50;;;;;;5093208;28;20201;-75
2022/03/14 02:22:40;;;;;;;1.88;1.27;;;8.90;72.80;;;;;;5093437;28;20025;-76
2022/03/14 02:25:10;;;;;;;3.47;1.30;;;8.90;73.70;;;;;;5093079;28;20020;-76
2022/03/14 02:27:37;;;;;;;2.38;1.23;;;9.00;74.30;;;;;;5094046;28;20492;-76
2022/03/14 02:30:03;;;;;;;1.33;1.10;;;9.00;73.70;;;;;;5097110;28;20105;-76
2022/03/14 02:32:29;;;;;;;2.05;1.15;;;9.10;73.60;;;;;;5097131;28;20499;-76
2022/03/14 02:34:54;;;;;;;1.65;0.95;;;9.10;73.50;;;;;;5097155;28;20024;-76
2022/03/14 02:37:20;;;;;;;4.20;1.50;;;9.10;73.70;;;;;;5097073;28;20042;-75
2022/03/14 02:39:47;;;;;;;1.23;0.93;;;9.10;75.00;;;;;;5097051;28;20039;-75
2022/03/14 02:42:13;;;;;;;2.75;0.90;;;9.10;74.20;;;;;;5096962;28;20023;-76
2022/03/14 02:44:41;;;;;;;1.20;0.90;;;9.10;74.10;;;;;;5097014;28;20426;-74
2022/03/14 02:47:08;;;;;;;0.60;0.60;;;9.00;73.60;;;;;;5096895;28;20104;-74
2022/03/14 02:49:34;;;;;;;1.30;0.80;;;9.00;74.20;;;;;;5096785;28;20030;-75
2022/03/14 02:52:00;;;;;;;1.13;0.90;;;8.90;74.10;;;;;;5096776;28;20028;-75
2022/03/14 02:54:25;;;;;;;1.40;1.10;;;8.90;74.00;;;;;;5096799;28;20024;-74
2022/03/14 02:56:52;;;;;;;2.47;0.60;;;8.90;74.60;;;;;;5096560;28;20063;-74
2022/03/14 02:59:17;;;;;;;1.50;0.77;;;8.90;74.80;;;;;;5096734;28;20108;-76
2022/03/14 03:01:43;;;;;;;0.50;0.50;;;9.00;74.50;;;;;;5096622;28;20095;-75
2022/03/14 03:04:10;;;;;;;0.68;0.57;;;9.00;74.40;;;;;;5096563;28;20039;-75
2022/03/14 03:06:35;;;;;;;0.35;0.30;;;8.90;75.00;;;;;;5096808;28;20450;-74
2022/03/14 03:09:03;;;;;;;1.27;0.20;;;8.70;71.90;;;;;;5096512;28;20020;-75
2022/03/14 03:11:29;;;;;;;0.40;0.30;;;8.60;71.90;;;;;;5096475;28;20032;-75
2022/03/14 03:13:56;;;;;;;0.80;0.30;;;8.50;73.10;;;;;;5096648;28;20039;-75
2022/03/14 03:16:22;;;;;;;0.32;0.10;;;8.50;73.10;;;;;;5096256;28;20072;-74
2022/03/14 03:18:47;;;;;;;0.30;0.30;;;8.60;71.80;;;;;;5096259;28;20455;-75
2022/03/14 03:21:14;;;;;;;0.25;0.17;;;8.50;71.30;;;;;;5096411;28;20104;-75
2022/03/14 03:23:40;;;;;;;0.35;0.10;;;8.50;71.40;;;;;;5096238;28;20469;-75
2022/03/14 03:26:06;;;;;;;0.20;0.10;;;8.60;71.50;;;;;;5096222;28;20028;-74
2022/03/14 03:28:37;;;;;;;0.10;0.10;;;8.60;71.00;;;;;;5096236;28;20110;-75
2022/03/14 03:31:05;;;;;;;0.20;0.20;;;8.70;70.80;;;;;;5096048;28;20384;-75
2022/03/14 03:33:30;;;;;;;0.35;0.20;;;8.70;70.80;;;;;;5096014;28;20149;-75
2022/03/14 03:35:56;;;;;;;1.50;0.35;;;8.80;69.60;;;;;;5096238;28;20103;-75
2022/03/14 03:38:22;;;;;;;0.60;0.28;;;8.70;68.80;;;;;;5095357;28;20480;-74
2022/03/14 03:40:47;;;;;;;0.30;0.13;;;8.70;69.30;;;;;;5095860;28;20036;-74
2022/03/14 03:43:14;;;;;;;0.68;0.20;;;8.70;69.10;;;;;;5095824;28;20028;-74
2022/03/14 03:45:39;;;;;;;0.20;0.20;;;8.80;69.20;;;;;;5095961;28;20020;-73
2022/03/14 03:48:05;;;;;;;0.30;0.20;;;8.70;68.90;;;;;;5094526;28;20472;-75
2022/03/14 03:50:31;;;;;;;0.15;0.10;;;8.70;69.60;;;;;;5095644;28;20476;-74
2022/03/14 03:52:57;;;;;;;0.10;0.10;;;8.70;69.60;;;;;;5095557;28;20016;-74
2022/03/14 03:55:23;;;;;;;0.22;0.20;;;8.70;69.00;;;;;;5095656;28;20028;-74
2022/03/14 03:57:48;;;;;;;0.00;0.00;;;8.50;69.30;;;;;;5095639;28;20086;-74
2022/03/14 04:00:14;;;;;;;1.75;0.20;;;8.40;69.20;;;;;;5095646;28;20020;-74
2022/03/14 04:02:42;;;;;;;0.68;0.22;;;8.40;69.20;;;;;;5095561;28;20065;-74
2022/03/14 04:05:09;;;;;;;0.55;0.20;;;8.30;69.70;;;;;;5095423;28;20484;-74
2022/03/14 04:07:35;;;;;;;0.22;0.10;;;8.40;68.90;;;;;;5095354;28;20109;-74
2022/03/14 04:10:02;;;;;;;0.30;0.10;;;8.40;69.30;;;;;;5095290;28;20036;-74
2022/03/14 04:12:28;;;;;;;0.90;0.20;;;8.40;69.30;;;;;;5095426;28;20028;-76
2022/03/14 04:14:56;;;;;;;0.30;0.15;;;8.50;69.40;;;;;;5095276;28;20023;-75
2022/03/14 04:17:25;;;;;;;0.20;0.20;;;8.50;69.10;;;;;;5095018;28;20123;-75
2022/03/14 04:19:52;;;;;;;0.22;0.20;;;8.40;69.70;;;;;;5095074;28;20024;-75
2022/03/14 04:22:19;;;;;;;0.45;0.30;;;8.30;69.60;;;;;;5094865;28;20099;-75
2022/03/14 04:24:45;;;;;;;1.08;0.50;;;8.30;69.80;;;;;;5095056;28;20039;-75
2022/03/14 04:27:11;;;;;;;1.02;0.52;;;8.30;69.60;;;;;;5094951;28;20097;-76
2022/03/14 04:29:36;;;;;;;0.93;0.50;;;8.20;70.30;;;;;;5094926;28;20065;-75
2022/03/14 04:32:02;;;;;;;0.32;0.30;;;8.30;70.20;;;;;;5094913;28;20035;-75
2022/03/14 04:34:28;;;;;;;0.30;0.30;;;8.30;69.60;;;;;;5094637;28;20073;-75
2022/03/14 04:36:54;;;;;;;0.17;0.10;;;8.30;69.40;;;;;;5093368;28;20024;-75
2022/03/14 04:39:20;;;;;;;2.28;0.13;;;8.30;69.40;;;;;;5094752;28;20024;-75
2022/03/14 04:41:46;;;;;;;0.28;0.10;;;8.30;68.90;;;;;;5094585;28;20031;-75
2022/03/14 04:44:12;;;;;;;0.10;0.10;;;8.30;69.10;;;;;;5094530;28;20032;-74
2022/03/14 04:46:38;;;;;;;0.57;0.10;;;8.30;68.60;;;;;;5094566;28;20380;-74
2022/03/14 04:49:05;;;;;;;0.32;0.20;;;8.30;68.30;;;;;;5094338;28;20027;-74
2022/03/14 04:51:32;;;;;;;0.73;0.30;;;8.20;68.60;;;;;;5093429;28;20039;-76
2022/03/14 04:53:57;;;;;;;0.38;0.38;;;8.00;69.10;;;;;;5093887;28;20028;-74
2022/03/14 04:56:23;;;;;;;0.10;0.10;;;7.80;70.40;;;;;;5094390;28;20085;-74
2022/03/14 04:58:49;;;;;;;0.22;0.10;;;7.70;70.40;;;;;;5094267;28;20024;-74
2022/03/14 05:01:14;;;;;;;0.15;0.10;;;7.70;70.70;;;;;;5094185;28;20024;-74
2022/03/14 05:03:40;;;;;;;0.00;0.00;;;7.70;70.30;;;;;;5094193;28;20028;-75
2022/03/14 05:06:06;;;;;;;0.20;0.13;;;7.70;70.00;;;;;;5094058;28;20088;-76
2022/03/14 05:08:31;;;;;;;0.30;0.10;;;7.70;69.90;;;;;;5094263;28;20064;-74
2022/03/14 05:10:57;;;;;;;0.45;0.20;;;7.60;70.30;;;;;;5094042;28;20031;-75
2022/03/14 05:13:23;;;;;;;1.02;0.22;;;7.50;70.60;;;;;;5094077;28;20027;-76
2022/03/14 05:15:48;;;;;;;0.30;0.17;;;7.60;70.20;;;;;;5093788;28;20144;-76
2022/03/14 05:18:14;;;;;;;1.30;0.30;;;7.50;70.00;;;;;;5093944;28;20476;-75
2022/03/14 05:20:40;;;;;;;0.10;0.10;;;7.50;70.30;;;;;;5093993;28;20020;-76
2022/03/14 05:23:06;;;;;;;0.32;0.10;;;7.40;70.10;;;;;;5093941;28;20095;-75
2022/03/14 05:25:32;;;;;;;1.20;0.52;;;7.40;69.90;;;;;;5093672;28;20150;-75
2022/03/14 05:27:57;;;;;;;0.10;0.10;;;7.40;70.00;;;;;;5092395;28;20396;-75
2022/03/14 05:30:24;;;;;;;0.10;0.10;;;7.40;70.10;;;;;;5093620;28;20031;-75
2022/03/14 05:32:50;;;;;;;0.03;0.03;;;7.40;69.80;;;;;;5093347;28;20028;-74
2022/03/14 05:35:15;;;;;;;0.10;0.10;;;7.40;69.60;;;;;;5093742;28;20115;-76
2022/03/14 05:37:42;;;;;;;0.28;0.10;;;7.40;69.60;;;;;;5094253;28;20105;-76
2022/03/14 05:40:10;;;;;;;0.10;0.10;;;7.30;70.00;;;;;;5093972;28;20136;-73
2022/03/14 05:42:36;;;;;;;0.10;0.10;;;7.30;70.10;;;;;;5094250;28;20028;-74
2022/03/14 05:45:02;;;;;;;0.30;0.25;;;7.30;70.40;;;;;;5094787;28;20058;-74
2022/03/14 05:47:28;;;;;;;3.50;2.03;;;7.30;70.10;;;;;;5096129;28;20020;-76
2022/03/14 05:49:54;;;;;;;0.75;0.10;;;7.30;70.20;;;;;;5094837;28;20081;-77
2022/03/14 05:52:21;;;;;;;0.38;0.30;;;7.30;69.60;;;;;;5094202;28;20447;-76
2022/03/14 05:54:46;;;;;;;1.58;0.88;;;7.30;69.30;;;;;;5093985;28;20020;-75
2022/03/14 05:57:12;;;;;;;0.20;0.20;;;7.20;69.60;;;;;;5093478;28;20024;-74
2022/03/14 05:59:38;;;;;;;0.45;0.38;;;7.30;69.40;;;;;;5092248;28;20020;-74
2022/03/14 06:02:03;;;;;;;0.93;0.60;;;7.40;69.10;;;;;;5093007;28;20020;-74
2022/03/14 06:04:29;;;;;;;0.40;0.30;;;7.30;69.10;;;;;;5093172;28;20020;-75
2022/03/14 06:06:56;;;;;;;0.20;0.20;;;7.40;69.20;;;;;;5093097;28;20372;-75
2022/03/14 06:09:25;;;;;;;0.32;0.32;;;7.50;69.20;;;;;;5093019;28;20024;-74
2022/03/14 06:11:53;;;;;;;1.35;0.80;;;7.50;69.00;;;;;;5092677;28;20035;-75
2022/03/14 06:14:19;;;;;;;1.40;0.80;;;7.60;68.80;;;;;;5092880;28;20660;-76
2022/03/14 06:16:45;;;;;;;1.60;0.90;;;7.70;68.90;;;;;;5091579;28;20062;-75
2022/03/14 06:19:10;;;;;;;3.03;1.45;;;7.70;69.00;;;;;;5092856;28;20445;-76
2022/03/14 06:21:38;;;;;;;2.50;1.60;;;7.70;69.20;;;;;;5092767;28;20028;-75
2022/03/14 06:24:05;;;;;;;6.32;3.03;;;7.70;69.70;;;;;;5092565;28;20031;-75
2022/03/14 06:26:31;;;;;;;7.50;4.38;;;7.70;69.50;;;;;;5092085;28;20031;-74
2022/03/14 06:28:56;;;;;;;7.47;4.60;;;7.70;69.70;;;;;;5092513;28;20028;-75
2022/03/14 06:31:22;;;;;;;9.35;4.70;;;7.70;69.40;;;;;;5092037;28;20032;-75
2022/03/14 06:33:49;;;;;;;4.55;2.60;;;7.70;70.00;;;;;;5092119;28;20385;-75
2022/03/14 06:36:15;;;;;;;3.15;1.90;;;7.80;69.80;;;;;;5092522;28;20032;-74
2022/03/14 06:38:40;;;;;;;2.95;2.15;;;7.80;69.90;;;;;;5092683;28;20129;-73
2022/03/14 06:41:07;;;;;;;4.05;2.67;;;7.90;69.80;;;;;;5092589;28;20110;-73
2022/03/14 06:43:35;;;;;;;3.30;2.35;;;7.90;69.40;;;;;;5092542;28;20020;-74
2022/03/14 06:46:00;;;;;;;2.25;1.85;;;7.90;69.30;;;;;;5092570;28;20024;-74
2022/03/14 06:48:26;;;;;;;1.95;1.65;;;7.90;69.40;;;;;;5092488;28;20039;-74
2022/03/14 06:50:51;;;;;;;2.38;1.70;;;7.90;69.30;;;;;;5092549;28;20031;-75
2022/03/14 06:53:17;;;;;;;0.98;0.88;;;8.00;69.30;;;;;;5092406;28;20020;-74
2022/03/14 06:55:43;;;;;;;1.08;0.85;;;8.00;68.80;;;;;;5092459;28;20031;-75
2022/03/14 06:58:08;;;;;;;1.15;0.50;;;8.10;68.50;;;;;;5091032;28;20541;-73
2022/03/14 07:00:34;;;;;;;3.97;0.45;;;8.20;67.90;;;;;;5092626;28;20058;-73
2022/03/14 07:03:00;;;;;;;0.68;0.35;;;8.30;67.70;;;;;;5092396;28;20020;-73
2022/03/14 07:05:26;;;;;;;0.80;0.60;;;8.40;67.40;;;;;;5091263;28;20568;-76
2022/03/14 07:07:52;;;;;;;1.33;0.50;;;8.50;67.00;;;;;;5092393;28;20099;-72
2022/03/14 07:10:19;;;;;;;3.33;1.23;;;8.60;66.70;;;;;;5092303;28;20036;-71
2022/03/14 07:12:46;;;;;;;2.50;1.27;;;8.70;66.10;;;;;;5092376;28;20020;-72
2022/03/14 07:15:22;;;;;;;2.88;1.60;;;8.90;65.70;;;;;;5095152;28;20031;-72
2022/03/14 07:17:48;;;;;;;2.10;1.42;;;8.90;65.10;;;;;;5095548;28;20062;-72
2022/03/14 07:20:14;;;;;;;1.88;1.20;;;8.90;65.40;;;;;;5096010;28;20020;-72
2022/03/14 07:22:55;;;;;;;5.95;1.55;;;8.90;65.30;;;;;;5096180;28;20525;-70
2022/03/14 07:25:24;;;;;;;7.65;1.75;;;9.00;67.50;;;;;;5095992;28;20385;-71
2022/03/14 07:27:50;;;;;;;2.90;1.52;;;9.40;75.70;;;;;;5095793;28;20135;-71
2022/03/14 07:30:16;;;;;;;2.17;1.20;;;9.60;72.00;;;;;;5095679;28;20155;-73
2022/03/14 07:32:42;;;;;;;2.72;1.30;;;10.10;67.60;;;;;;5095577;28;20077;-69
2022/03/14 07:35:09;;;;;;;2.22;1.45;;;10.40;64.50;;;;;;5095693;28;20031;-71
2022/03/14 07:37:35;;;;;;;0.75;0.60;;;10.50;59.80;;;;;;5095488;28;20105;-70
2022/03/14 07:40:01;;;;;;;0.85;0.60;;;10.50;59.20;;;;;;5095659;28;20075;-69
2022/03/14 07:42:27;;;;;;;1.10;0.70;;;10.50;59.60;;;;;;5095958;28;20036;-69
2022/03/14 07:44:53;;;;;;;1.17;0.85;;;10.70;58.90;;;;;;5095433;28;20024;-70
2022/03/14 07:47:18;;;;;;;1.63;0.75;;;10.80;58.10;;;;;;5095380;28;20119;-70
2022/03/14 07:49:45;;;;;;;1.05;0.70;;;10.80;56.90;;;;;;5095419;28;20071;-70
2022/03/14 07:52:10;;;;;;;4.40;0.50;;;10.80;56.80;;;;;;5095664;28;20028;-70
2022/03/14 07:54:36;;;;;;;0.55;0.40;;;10.70;56.00;;;;;;5095455;28;20030;-70
2022/03/14 07:57:02;;;;;;;0.60;0.45;;;10.80;56.20;;;;;;5095797;28;20077;-71
2022/03/14 07:59:27;;;;;;;1.13;0.50;;;10.70;55.50;;;;;;5095622;28;20353;-72
2022/03/14 08:01:53;;;;;;;0.88;0.30;;;10.60;53.80;;;;;;5095288;28;20024;-76
2022/03/14 08:04:18;;;;;;;0.65;0.43;;;10.00;56.90;;;;;;5095112;28;20078;-71
2022/03/14 08:06:45;;;;;;;1.20;0.30;;;9.60;58.80;;;;;;5094828;28;20035;-73
2022/03/14 08:09:11;;;;;;;1.13;0.28;;;9.20;60.20;;;;;;5093557;28;20027;-71
2022/03/14 08:11:38;;;;;;;0.45;0.20;;;9.30;60.10;;;;;;5094971;28;20032;-72
2022/03/14 08:14:05;;;;;;;2.00;0.38;;;9.20;59.10;;;;;;5095048;28;20036;-72
2022/03/14 08:16:31;;;;;;;5.55;0.52;;;9.30;58.70;;;;;;5094970;28;20063;-77
2022/03/14 08:18:56;;;;;;;1.88;0.40;;;9.10;59.60;;;;;;5095250;28;20036;-70
2022/03/14 08:21:22;;;;;;;0.90;0.35;;;9.10;59.30;;;;;;5093574;28;20017;-71
2022/03/14 08:23:48;;;;;;;4.80;0.22;;;9.20;59.30;;;;;;5094813;28;20039;-72
2022/03/14 08:26:13;;;;;;;1.75;0.50;;;9.10;61.70;;;;;;5094771;28;20376;-71
2022/03/14 08:28:43;;;;;;;1.85;0.80;;;9.10;59.20;;;;;;5094760;28;20027;-73
2022/03/14 08:31:09;;;;;;;0.95;0.55;;;9.10;59.80;;;;;;5094604;28;20032;-71
2022/03/14 08:33:39;;;;;;;2.25;0.30;;;9.10;59.40;;;;;;5095058;28;20030;-71
2022/03/14 08:36:06;;;;;;;3.05;0.47;;;9.00;59.40;;;;;;5094696;28;20065;-70
2022/03/14 08:38:32;;;;;;;3.50;0.73;;;8.90;60.60;;;;;;5094766;28;20028;-73
2022/03/14 08:40:57;;;;;;;1.35;0.25;;;8.90;60.30;;;;;;5093284;28;20085;-71
2022/03/14 08:43:24;;;;;;;1.02;0.75;;;9.00;60.00;;;;;;5094339;28;20529;-72
2022/03/14 08:45:49;;;;;;;2.42;0.50;;;9.00;60.20;;;;;;5094403;28;20032;-70
2022/03/14 08:48:15;;;;;;;3.25;0.50;;;9.10;59.80;;;;;;5094518;28;20020;-71
2022/03/14 08:50:41;;;;;;;2.05;0.68;;;9.10;58.90;;;;;;5093845;28;20087;-70
2022/03/14 08:53:07;;;;;;;4.75;0.90;;;9.20;57.10;;;;;;5094045;28;20052;-70
2022/03/14 08:55:33;;;;;;;8.85;1.52;;;9.10;57.30;;;;;;5093898;28;20530;-70
2022/03/14 08:57:58;;;;;;;2.85;0.50;;;9.10;57.50;;;;;;5093846;28;20040;-71
2022/03/14 09:00:27;;;;;;;3.55;1.08;;;9.30;57.60;;;;;;5093870;28;20028;-71
2022/03/14 09:02:56;;;;;;;5.18;0.95;;;9.50;56.90;;;;;;5093970;28;20031;-71
2022/03/14 09:05:22;;;;;;;4.50;0.60;;;9.70;56.60;;;;;;5094046;28;20028;-74
2022/03/14 09:07:49;;;;;;;3.90;0.98;;;9.80;56.60;;;;;;5093394;28;20380;-71
2022/03/14 09:10:17;;;;;;;3.92;0.70;;;10.20;54.90;;;;;;5093477;28;20028;-71
2022/03/14 09:12:43;;;;;;;1.73;0.47;;;10.60;55.00;;;;;;5093169;28;20024;-71
2022/03/14 09:15:12;;;;;;;5.18;0.57;;;10.70;54.30;;;;;;5093052;28;20028;-71
2022/03/14 09:17:52;;;;;;;2.53;0.75;;;10.60;55.00;;;;;;5092288;28;20349;-70
2022/03/14 09:20:19;;;;;;;2.67;0.85;;;10.80;54.40;;;;;;5093361;28;20438;-71
2022/03/14 09:22:45;;;;;;;3.88;1.10;;;10.80;52.80;;;;;;5093626;28;20019;-72
2022/03/14 09:25:16;;;;;;;1.60;0.85;;;10.70;52.00;;;;;;5093535;28;20488;-72
2022/03/14 09:27:42;;;;;;;2.60;1.00;;;10.50;52.30;;;;;;5093087;28;20020;-72
2022/03/14 09:30:09;;;;;;;3.25;1.25;;;10.20;52.60;;;;;;5092996;28;20035;-72
2022/03/14 09:32:35;;;;;;;8.30;2.42;;;10.00;53.10;;;;;;5093054;28;20028;-72
2022/03/14 09:35:03;;;;;;;4.13;1.52;;;10.00;51.90;;;;;;5093390;28;20032;-74
2022/03/14 09:37:30;;;;;;;4.80;1.00;;;10.10;52.00;;;;;;5092623;28;20024;-75
2022/03/14 09:39:56;;;;;;;2.42;0.95;;;10.10;52.50;;;;;;5093198;28;20023;-76
2022/03/14 09:42:22;;;;;;;5.82;0.98;;;10.30;51.50;;;;;;5093236;28;20376;-78
2022/03/14 09:44:53;;;;;;;4.20;0.88;;;10.30;50.20;;;;;;5091910;28;20028;-74
2022/03/14 09:47:23;;;;;;;3.90;0.88;;;10.40;49.40;;;;;;5093347;28;20365;-71
2022/03/14 09:49:54;;;;;;;3.47;0.90;;;10.60;49.60;;;;;;5093075;28;20035;-74
2022/03/14 09:52:21;;;;;;;3.17;1.00;;;10.80;49.80;;;;;;5091973;28;20028;-76
2022/03/14 09:54:48;;;;;;;2.55;1.02;;;11.00;48.30;;;;;;5093220;28;20024;-75
2022/03/14 09:57:14;;;;;;;4.30;1.05;;;11.10;47.90;;;;;;5093024;28;20026;-74
2022/03/14 09:59:41;;;;;;;3.25;0.82;;;11.10;46.60;;;;;;5092966;28;20017;-78
2022/03/14 10:02:10;;;;;;;3.15;0.70;;;11.40;45.80;;;;;;5092719;28;20095;-79
2022/03/14 10:04:35;;;;;;;3.83;1.00;;;11.60;45.10;;;;;;5092934;28;20379;-78
2022/03/14 10:07:02;;;;;;;7.50;0.80;;;11.90;43.90;;;;;;5091443;28;20103;-80
2022/03/14 10:09:27;;;;;;;1.48;0.60;;;11.80;44.50;;;;;;5093095;28;20472;-78
2022/03/14 10:11:55;;;;;;;5.63;1.00;;;12.20;43.70;;;;;;5092855;28;20062;-79
2022/03/14 10:14:22;;;;;;;4.57;1.10;;;12.50;43.80;;;;;;5092991;28;20422;-76
2022/03/14 10:16:47;;;;;;;6.75;1.13;;;12.80;41.50;;;;;;5092559;28;20757;-79
2022/03/14 10:19:20;;;;;;;6.28;0.98;;;13.20;41.00;;;;;;5092875;28;20020;-75
2022/03/14 10:21:46;;;;;;;3.75;0.95;;;13.50;39.90;;;;;;5091575;28;20486;-77
2022/03/14 10:24:13;;;;;;;3.92;0.98;;;13.10;39.60;;;;;;5092691;28;20531;-72
2022/03/14 10:26:43;;;;;;;3.78;1.08;;;13.30;39.20;;;;;;5092710;28;20077;-74
2022/03/14 10:29:11;;;;;;;4.28;1.00;;;13.60;39.50;;;;;;5092907;28;20047;-78
2022/03/14 10:31:42;;;;;;;5.38;1.10;;;13.80;40.90;;;;;;5092831;28;20119;-72
2022/03/14 10:34:13;;;;;;;3.92;0.88;;;13.90;39.20;;;;;;5092871;28;20552;-75
2022/03/14 10:36:46;;;;;;;4.93;0.90;;;14.10;39.00;;;;;;5092850;28;20028;-73
2022/03/14 10:39:12;;;;;;;3.35;1.02;;;14.40;37.90;;;;;;5092501;28;20060;-70
2022/03/14 10:41:39;;;;;;;2.35;0.65;;;14.70;37.80;;;;;;5092651;28;20024;-72
2022/03/14 10:44:06;;;;;;;3.97;1.38;;;15.00;38.60;;;;;;5092654;28;20017;-71
2022/03/14 10:46:32;;;;;;;3.50;1.23;;;15.20;36.30;;;;;;5092477;28;20025;-73
2022/03/14 10:48:58;;;;;;;4.72;1.20;;;15.40;36.10;;;;;;5094161;28;20050;-73
2022/03/14 10:51:24;;;;;;;6.80;1.13;;;15.50;34.90;;;;;;5096446;28;20031;-71
2022/03/14 10:53:49;;;;;;;3.80;0.93;;;15.30;34.50;;;;;;5096359;28;20127;-70
2022/03/14 10:56:17;;;;;;;3.72;1.55;;;14.60;35.50;;;;;;5094607;28;20077;-71
2022/03/14 10:58:43;;;;;;;2.20;1.00;;;14.30;35.90;;;;;;5096036;28;20077;-72
2022/03/14 11:01:12;;;;;;;4.63;1.42;;;13.90;36.60;;;;;;5096342;28;20020;-72
2022/03/14 11:03:40;;;;;;;6.47;1.45;;;14.10;37.40;;;;;;5095951;28;20059;-71
2022/03/14 11:06:07;;;;;;;9.38;1.65;;;14.40;38.30;;;;;;5095820;28;20024;-71
2022/03/14 11:08:38;;;;;;;3.00;1.15;;;14.50;36.00;;;;;;5096066;28;20031;-71
2022/03/14 11:11:09;;;;;;;4.03;1.33;;;14.80;34.90;;;;;;5095893;28;20032;-72
2022/03/14 11:13:40;;;;;;;4.05;1.42;;;15.10;35.10;;;;;;5095322;28;20046;-73
2022/03/14 11:16:10;;;;;;;3.45;0.90;;;15.40;34.50;;;;;;5095278;28;20055;-72
2022/03/14 11:18:37;;;;;;;6.78;1.23;;;15.30;33.60;;;;;;5095501;28;20024;-71
2022/03/14 11:21:04;;;;;;;4.53;1.20;;;15.00;34.20;;;;;;5094054;28;20028;-72
2022/03/14 11:23:31;;;;;;;7.80;1.30;;;15.00;34.10;;;;;;5095432;28;20406;-72
2022/03/14 11:25:59;;;;;;;5.88;1.27;;;15.20;34.20;;;;;;5095582;28;20468;-72
2022/03/14 11:28:25;;;;;;;3.33;1.02;;;15.70;33.80;;;;;;5095758;28;20016;-72
2022/03/14 11:30:57;;;;;;;3.00;1.00;;;16.00;32.80;;;;;;5095497;28;20072;-72
2022/03/14 11:33:23;;;;;;;5.15;1.25;;;16.40;31.80;;;;;;5095507;28;20426;-73
2022/03/14 11:35:50;;;;;;;4.93;1.70;;;16.50;31.20;;;;;;5094274;28;20190;-73
2022/03/14 11:38:16;;;;;;;6.72;1.40;;;16.60;30.10;;;;;;5095042;28;20104;-72
2022/03/14 11:40:42;;;;;;;2.85;1.02;;;16.60;29.10;;;;;;5094781;28;20085;-72
2022/03/14 11:43:09;;;;;;;2.83;1.10;;;16.70;29.50;;;;;;5095268;28;20464;-72
2022/03/14 11:45:36;;;;;;;2.10;0.70;;;16.20;29.80;;;;;;5095012;28;20060;-72
2022/03/14 11:48:04;;;;;;;3.92;1.58;;;16.20;28.30;;;;;;5095102;28;20473;-72
2022/03/14 11:50:41;;;;;;;3.25;1.10;;;16.00;28.50;;;;;;5094638;28;20177;-73
2022/03/14 11:53:06;;;;;;;4.78;1.33;;;16.00;29.00;;;;;;5094654;28;20050;-73
2022/03/14 11:55:32;;;;;;;5.20;1.48;;;16.00;30.00;;;;;;5094079;28;20456;-72
2022/03/14 11:57:57;;;;;;;3.80;1.83;;;16.10;28.20;;;;;;5094799;28;20535;-73
2022/03/14 12:00:32;;;;;;;3.58;1.17;;;16.30;27.70;;;;;;5094092;28;20107;-72
2022/03/14 12:03:37;;;;;;;4.80;1.02;;;15.70;26.60;;;;;;5094528;28;20030;-72
2022/03/14 12:06:03;;;;;;;5.35;1.48;;;15.40;29.00;;;;;;5094384;28;20024;-72
2022/03/14 12:08:32;;;;;;;7.65;1.42;;;15.80;28.20;;;;;;5094517;28;20017;-71
2022/03/14 12:11:37;;;;;;;4.35;1.20;;;16.20;27.40;;;;;;5093137;28;20074;-75
2022/03/14 12:14:04;;;;;;;3.05;1.15;;;16.40;27.60;;;;;;5093604;28;20031;-74
2022/03/14 12:16:44;;;;;;;4.10;0.90;;;16.50;27.50;;;;;;5092840;28;20433;-74
2022/03/14 12:19:29;;;;;;;4.25;0.95;;;17.00;25.60;;;;;;5094793;28;20048;-77
2022/03/14 12:21:56;;;;;;;2.60;0.82;;;17.30;24.80;;;;;;5094494;28;20098;-76
2022/03/14 12:24:37;;;;;;;2.17;0.95;;;17.40;24.10;;;;;;5094473;28;20143;-74
2022/03/14 12:27:19;;;;;;;3.45;0.90;;;17.40;23.30;;;;;;5093980;28;20145;-73
2022/03/14 12:29:46;;;;;;;1.83;0.90;;;17.30;23.70;;;;;;5093790;28;20476;-73
2022/03/14 12:32:42;;;;;;;2.05;0.90;;;17.40;24.50;;;;;;5092678;28;20037;-73
2022/03/14 12:35:12;;;;;;;3.53;1.05;;;17.40;24.10;;;;;;5094086;28;20384;-72
2022/03/14 12:37:42;;;;;;;3.40;0.85;;;18.10;24.00;;;;;;5094428;28;20514;-73
2022/03/14 12:40:28;;;;;;;3.25;0.95;;;18.10;23.60;;;;;;5092873;28;20116;-72
2022/03/14 12:43:12;;;;;;;5.45;1.33;;;18.00;22.60;;;;;;5085710;28;20035;-72
2022/03/14 12:45:45;;;;;;;2.63;0.88;;;18.10;22.90;;;;;;5094358;28;20434;-77
2022/03/14 12:48:28;;;;;;;5.75;1.00;;;18.00;22.70;;;;;;5093955;28;20103;-71
2022/03/14 12:50:56;;;;;;;4.25;1.00;;;17.60;22.40;;;;;;5093972;28;20059;-75